<?xml version="1.0" encoding="UTF-8" standalone="no" ?>
<gpx xmlns="http://www.topografix.com/GPX/1/1" xmlns:xsi="http://www.w3.org/2001/XMLSchema-instance" xsi:schemaLocation="http://www.topografix.com/GPX/1/1 http://www.topografix.com/GPX/1/1/gpx.xsd" version="1.1" creator="VisuGPX - https://www.visugpx.com">
  <metadata>
    <name>randOx_courte 22-23_Técou. Sentier des clochers</name>
  </metadata>
  <wpt lat="43.84278" lon="1.95002">
    <ele>245</ele>
    <name><![CDATA[Parking de la salle polyvalente de Técou]]></name>
  </wpt>
  <wpt lat="43.83067" lon="1.96694">
    <ele>284.2</ele>
    <name><![CDATA[Chemin à droite entre les vignes ]]></name>
  </wpt>
  <wpt lat="43.82731" lon="1.96537">
    <ele>312.9</ele>
    <name><![CDATA[A gauche vers Manavit Haut]]></name>
  </wpt>
  <wpt lat="43.82777" lon="1.97273">
    <ele>278.1</ele>
    <name><![CDATA[A gauche, à la croix]]></name>
  </wpt>
  <wpt lat="43.82056" lon="1.98358">
    <ele>243.8</ele>
    <name><![CDATA[Continuer sur la route en face]]></name>
  </wpt>
  <wpt lat="43.82766" lon="1.98533">
    <ele>283.8</ele>
    <name><![CDATA[Piste empierrée à gauche]]></name>
  </wpt>
  <wpt lat="43.82838" lon="1.97903">
    <ele>301.7</ele>
    <name><![CDATA[Sentier à droite avant le Pioch de Moncassin]]></name>
  </wpt>
  <wpt lat="43.8412" lon="1.97374">
    <ele>242.3</ele>
    <name><![CDATA[Piste herbeuse à gauche]]></name>
  </wpt>
  <wpt lat="43.84113" lon="1.96403">
    <ele>225.4</ele>
    <name><![CDATA[Avant la Tapie, à droite]]></name>
  </wpt>
  <wpt lat="43.84695" lon="1.95515">
    <ele>206.9</ele>
    <name><![CDATA[A gauche vers Técou]]></name>
  </wpt>
  <wpt lat="43.84274" lon="1.95005">
    <ele>244.4</ele>
    <name><![CDATA[Parking de la salle polyvalente de Técou]]></name>
  </wpt>
  <trk>
    <name><![CDATA[Sentier des clochers]]></name>
    <extensions>
      <line xmlns="http://www.topografix.com/GPX/gpx_style/0/2">
        <color>0000FF</color>
        <width>4</width>
          <extensions>
            <sens>1</sens>
          </extensions>
      </line>
    </extensions>
    <trkseg>
      <trkpt lat="43.84278" lon="1.95002">
        <ele>248</ele>
        <time>2016-05-20T14:02:50+02:00</time>
      </trkpt>
      <trkpt lat="43.84277" lon="1.95017">
        <ele>247</ele>
      </trkpt>
      <trkpt lat="43.84267" lon="1.9503">
        <ele>245</ele>
        <time>2016-05-20T14:05:59+02:00</time>
      </trkpt>
      <trkpt lat="43.84255" lon="1.9505">
        <ele>242</ele>
        <time>2016-05-20T14:06:25+02:00</time>
      </trkpt>
      <trkpt lat="43.84237" lon="1.95074">
        <ele>240</ele>
        <time>2016-05-20T14:06:49+02:00</time>
      </trkpt>
      <trkpt lat="43.84219" lon="1.951">
        <ele>237</ele>
        <time>2016-05-20T14:07:13+02:00</time>
      </trkpt>
      <trkpt lat="43.84215" lon="1.95112">
        <ele>237</ele>
      </trkpt>
      <trkpt lat="43.84204" lon="1.95123">
        <ele>236</ele>
        <time>2016-05-20T14:07:36+02:00</time>
      </trkpt>
      <trkpt lat="43.84187" lon="1.95145">
        <ele>234</ele>
        <time>2016-05-20T14:07:56+02:00</time>
      </trkpt>
      <trkpt lat="43.84171" lon="1.95169">
        <ele>233</ele>
        <time>2016-05-20T14:08:17+02:00</time>
      </trkpt>
      <trkpt lat="43.84155" lon="1.95192">
        <ele>232</ele>
        <time>2016-05-20T14:08:38+02:00</time>
      </trkpt>
      <trkpt lat="43.8414" lon="1.95214">
        <ele>231</ele>
        <time>2016-05-20T14:08:59+02:00</time>
      </trkpt>
      <trkpt lat="43.84123" lon="1.95239">
        <ele>231</ele>
        <time>2016-05-20T14:09:19+02:00</time>
      </trkpt>
      <trkpt lat="43.84106" lon="1.9526">
        <ele>231</ele>
        <time>2016-05-20T14:09:38+02:00</time>
      </trkpt>
      <trkpt lat="43.84089" lon="1.95282">
        <ele>231</ele>
        <time>2016-05-20T14:09:58+02:00</time>
      </trkpt>
      <trkpt lat="43.84074" lon="1.95305">
        <ele>231</ele>
        <time>2016-05-20T14:10:18+02:00</time>
      </trkpt>
      <trkpt lat="43.84059" lon="1.9533">
        <ele>231</ele>
        <time>2016-05-20T14:10:38+02:00</time>
      </trkpt>
      <trkpt lat="43.84046" lon="1.95356">
        <ele>231</ele>
        <time>2016-05-20T14:10:58+02:00</time>
      </trkpt>
      <trkpt lat="43.84034" lon="1.95383">
        <ele>231</ele>
        <time>2016-05-20T14:11:19+02:00</time>
      </trkpt>
      <trkpt lat="43.84021" lon="1.9541">
        <ele>231</ele>
        <time>2016-05-20T14:11:40+02:00</time>
      </trkpt>
      <trkpt lat="43.84009" lon="1.95437">
        <ele>231</ele>
        <time>2016-05-20T14:12:01+02:00</time>
      </trkpt>
      <trkpt lat="43.83998" lon="1.95465">
        <ele>232</ele>
        <time>2016-05-20T14:12:24+02:00</time>
      </trkpt>
      <trkpt lat="43.8399" lon="1.95495">
        <ele>232</ele>
        <time>2016-05-20T14:12:48+02:00</time>
      </trkpt>
      <trkpt lat="43.8398" lon="1.95522">
        <ele>233</ele>
        <time>2016-05-20T14:13:09+02:00</time>
      </trkpt>
      <trkpt lat="43.8397" lon="1.95552">
        <ele>234</ele>
        <time>2016-05-20T14:13:31+02:00</time>
      </trkpt>
      <trkpt lat="43.83963" lon="1.95581">
        <ele>235</ele>
        <time>2016-05-20T14:13:53+02:00</time>
      </trkpt>
      <trkpt lat="43.83956" lon="1.95611">
        <ele>236</ele>
        <time>2016-05-20T14:14:15+02:00</time>
      </trkpt>
      <trkpt lat="43.83949" lon="1.95641">
        <ele>238</ele>
        <time>2016-05-20T14:14:37+02:00</time>
      </trkpt>
      <trkpt lat="43.83943" lon="1.95671">
        <ele>239</ele>
        <time>2016-05-20T14:14:59+02:00</time>
      </trkpt>
      <trkpt lat="43.83935" lon="1.95701">
        <ele>240</ele>
        <time>2016-05-20T14:15:21+02:00</time>
      </trkpt>
      <trkpt lat="43.83925" lon="1.95729">
        <ele>241</ele>
        <time>2016-05-20T14:15:44+02:00</time>
      </trkpt>
      <trkpt lat="43.83913" lon="1.95756">
        <ele>242</ele>
        <time>2016-05-20T14:16:07+02:00</time>
      </trkpt>
      <trkpt lat="43.83902" lon="1.95785">
        <ele>244</ele>
        <time>2016-05-20T14:16:30+02:00</time>
      </trkpt>
      <trkpt lat="43.83892" lon="1.95813">
        <ele>245</ele>
        <time>2016-05-20T14:16:54+02:00</time>
      </trkpt>
      <trkpt lat="43.83883" lon="1.95842">
        <ele>247</ele>
        <time>2016-05-20T14:17:17+02:00</time>
      </trkpt>
      <trkpt lat="43.83879" lon="1.95873">
        <ele>249</ele>
        <time>2016-05-20T14:17:42+02:00</time>
      </trkpt>
      <trkpt lat="43.83877" lon="1.95904">
        <ele>251</ele>
        <time>2016-05-20T14:18:06+02:00</time>
      </trkpt>
      <trkpt lat="43.83875" lon="1.95936">
        <ele>252</ele>
        <time>2016-05-20T14:18:29+02:00</time>
      </trkpt>
      <trkpt lat="43.83869" lon="1.95968">
        <ele>253</ele>
        <time>2016-05-20T14:18:54+02:00</time>
      </trkpt>
      <trkpt lat="43.83864" lon="1.95999">
        <ele>254</ele>
        <time>2016-05-20T14:19:15+02:00</time>
      </trkpt>
      <trkpt lat="43.83857" lon="1.96029">
        <ele>254</ele>
        <time>2016-05-20T14:19:35+02:00</time>
      </trkpt>
      <trkpt lat="43.83842" lon="1.96053">
        <ele>256</ele>
        <time>2016-05-20T14:19:55+02:00</time>
      </trkpt>
      <trkpt lat="43.83827" lon="1.96076">
        <ele>257</ele>
        <time>2016-05-20T14:20:16+02:00</time>
      </trkpt>
      <trkpt lat="43.8381" lon="1.96098">
        <ele>258</ele>
        <time>2016-05-20T14:20:37+02:00</time>
      </trkpt>
      <trkpt lat="43.83793" lon="1.9612">
        <ele>259</ele>
        <time>2016-05-20T14:20:59+02:00</time>
      </trkpt>
      <trkpt lat="43.83775" lon="1.9614">
        <ele>261</ele>
        <time>2016-05-20T14:22:10+02:00</time>
      </trkpt>
      <trkpt lat="43.83755" lon="1.96156">
        <ele>264</ele>
        <time>2016-05-20T14:22:34+02:00</time>
      </trkpt>
      <trkpt lat="43.83735" lon="1.96171">
        <ele>266</ele>
        <time>2016-05-20T14:22:55+02:00</time>
      </trkpt>
      <trkpt lat="43.83713" lon="1.96183">
        <ele>267</ele>
        <time>2016-05-20T14:23:17+02:00</time>
      </trkpt>
      <trkpt lat="43.83692" lon="1.96194">
        <ele>268</ele>
        <time>2016-05-20T14:23:39+02:00</time>
      </trkpt>
      <trkpt lat="43.8367" lon="1.96203">
        <ele>270</ele>
        <time>2016-05-20T14:24:00+02:00</time>
      </trkpt>
      <trkpt lat="43.83649" lon="1.96215">
        <ele>273</ele>
        <time>2016-05-20T14:24:30+02:00</time>
      </trkpt>
      <trkpt lat="43.83628" lon="1.96224">
        <ele>274</ele>
        <time>2016-05-20T14:24:56+02:00</time>
      </trkpt>
      <trkpt lat="43.83617" lon="1.96226">
        <ele>275</ele>
      </trkpt>
      <trkpt lat="43.83599" lon="1.9623">
        <ele>276</ele>
        <time>2016-05-20T14:25:16+02:00</time>
      </trkpt>
      <trkpt lat="43.83582" lon="1.96233">
        <ele>276</ele>
        <time>2016-05-20T14:25:36+02:00</time>
      </trkpt>
      <trkpt lat="43.83561" lon="1.9623">
        <ele>277</ele>
        <time>2016-05-20T14:25:53+02:00</time>
      </trkpt>
      <trkpt lat="43.83541" lon="1.96226">
        <ele>277</ele>
        <time>2016-05-20T14:26:13+02:00</time>
      </trkpt>
      <trkpt lat="43.83529" lon="1.96212">
        <ele>278</ele>
        <time>2016-05-20T14:26:35+02:00</time>
      </trkpt>
      <trkpt lat="43.83517" lon="1.96193">
        <ele>279</ele>
        <time>2016-05-20T14:26:54+02:00</time>
      </trkpt>
      <trkpt lat="43.83509" lon="1.96181">
        <ele>280</ele>
        <time>2016-05-20T14:27:12+02:00</time>
      </trkpt>
      <trkpt lat="43.83491" lon="1.96168">
        <ele>282</ele>
      </trkpt>
      <trkpt lat="43.83477" lon="1.96154">
        <ele>282</ele>
        <time>2016-05-20T14:27:35+02:00</time>
      </trkpt>
      <trkpt lat="43.83457" lon="1.96151">
        <ele>282</ele>
      </trkpt>
      <trkpt lat="43.83432" lon="1.96148">
        <ele>282</ele>
        <time>2016-05-20T14:27:59+02:00</time>
      </trkpt>
      <trkpt lat="43.83412" lon="1.96148">
        <ele>282</ele>
        <time>2016-05-20T14:28:26+02:00</time>
      </trkpt>
      <trkpt lat="43.83388" lon="1.96147">
        <ele>280</ele>
        <time>2016-05-20T14:28:51+02:00</time>
      </trkpt>
      <trkpt lat="43.83383" lon="1.96146">
        <ele>279</ele>
      </trkpt>
      <trkpt lat="43.8337" lon="1.96159">
        <ele>278</ele>
        <time>2016-05-20T14:29:14+02:00</time>
      </trkpt>
      <trkpt lat="43.8336" lon="1.9617">
        <ele>278</ele>
      </trkpt>
      <trkpt lat="43.83352" lon="1.96189">
        <ele>278</ele>
        <time>2016-05-20T14:29:38+02:00</time>
      </trkpt>
      <trkpt lat="43.83342" lon="1.96217">
        <ele>278</ele>
        <time>2016-05-20T14:29:59+02:00</time>
      </trkpt>
      <trkpt lat="43.83332" lon="1.96244">
        <ele>279</ele>
        <time>2016-05-20T14:30:24+02:00</time>
      </trkpt>
      <trkpt lat="43.83329" lon="1.96257">
        <ele>279</ele>
      </trkpt>
      <trkpt lat="43.83318" lon="1.96271">
        <ele>278</ele>
        <time>2016-05-20T14:30:44+02:00</time>
      </trkpt>
      <trkpt lat="43.83305" lon="1.9629">
        <ele>278</ele>
        <time>2016-05-20T14:31:10+02:00</time>
      </trkpt>
      <trkpt lat="43.83297" lon="1.963">
        <ele>278</ele>
      </trkpt>
      <trkpt lat="43.83282" lon="1.96315">
        <ele>278</ele>
        <time>2016-05-20T14:31:34+02:00</time>
      </trkpt>
      <trkpt lat="43.83268" lon="1.96328">
        <ele>279</ele>
        <time>2016-05-20T14:31:52+02:00</time>
      </trkpt>
      <trkpt lat="43.83252" lon="1.9635">
        <ele>280</ele>
        <time>2016-05-20T14:32:12+02:00</time>
      </trkpt>
      <trkpt lat="43.8324" lon="1.96363">
        <ele>279</ele>
      </trkpt>
      <trkpt lat="43.83231" lon="1.96377">
        <ele>278</ele>
        <time>2016-05-20T14:32:38+02:00</time>
      </trkpt>
      <trkpt lat="43.83219" lon="1.964">
        <ele>277</ele>
        <time>2016-05-20T14:32:56+02:00</time>
      </trkpt>
      <trkpt lat="43.83209" lon="1.96419">
        <ele>277</ele>
        <time>2016-05-20T14:33:55+02:00</time>
      </trkpt>
      <trkpt lat="43.832" lon="1.96436">
        <ele>278</ele>
      </trkpt>
      <trkpt lat="43.8319" lon="1.96453">
        <ele>278</ele>
        <time>2016-05-20T14:34:33+02:00</time>
      </trkpt>
      <trkpt lat="43.83183" lon="1.96467">
        <ele>279</ele>
      </trkpt>
      <trkpt lat="43.83177" lon="1.96483">
        <ele>280</ele>
        <time>2016-05-20T14:36:55+02:00</time>
      </trkpt>
      <trkpt lat="43.83171" lon="1.96496">
        <ele>282</ele>
      </trkpt>
      <trkpt lat="43.83164" lon="1.96511">
        <ele>283</ele>
        <time>2016-05-20T14:37:17+02:00</time>
      </trkpt>
      <trkpt lat="43.83161" lon="1.96526">
        <ele>284</ele>
      </trkpt>
      <trkpt lat="43.83156" lon="1.9654">
        <ele>285</ele>
        <time>2016-05-20T14:37:41+02:00</time>
      </trkpt>
      <trkpt lat="43.83152" lon="1.9655">
        <ele>286</ele>
      </trkpt>
      <trkpt lat="43.83144" lon="1.96559">
        <ele>286</ele>
        <time>2016-05-20T14:38:08+02:00</time>
      </trkpt>
      <trkpt lat="43.83134" lon="1.96567">
        <ele>286</ele>
      </trkpt>
      <trkpt lat="43.83123" lon="1.96579">
        <ele>286</ele>
        <time>2016-05-20T14:38:30+02:00</time>
      </trkpt>
      <trkpt lat="43.83113" lon="1.96593">
        <ele>286</ele>
      </trkpt>
      <trkpt lat="43.83104" lon="1.96605">
        <ele>286</ele>
        <time>2016-05-20T14:38:50+02:00</time>
      </trkpt>
      <trkpt lat="43.83091" lon="1.96626">
        <ele>286</ele>
        <time>2016-05-20T14:39:08+02:00</time>
      </trkpt>
      <trkpt lat="43.83084" lon="1.96636">
        <ele>286</ele>
      </trkpt>
      <trkpt lat="43.83078" lon="1.96653">
        <ele>288</ele>
        <time>2016-05-20T14:39:26+02:00</time>
      </trkpt>
      <trkpt lat="43.83072" lon="1.9667">
        <ele>289</ele>
      </trkpt>
      <trkpt lat="43.83067" lon="1.96694">
        <ele>289</ele>
        <time>2016-05-20T14:39:45+02:00</time>
      </trkpt>
      <trkpt lat="43.83049" lon="1.96691">
        <ele>290</ele>
        <time>2016-05-20T14:40:08+02:00</time>
      </trkpt>
      <trkpt lat="43.83027" lon="1.96683">
        <ele>291</ele>
        <time>2016-05-20T14:40:31+02:00</time>
      </trkpt>
      <trkpt lat="43.83005" lon="1.96673">
        <ele>292</ele>
        <time>2016-05-20T14:40:56+02:00</time>
      </trkpt>
      <trkpt lat="43.82996" lon="1.96667">
        <ele>294</ele>
      </trkpt>
      <trkpt lat="43.82985" lon="1.96659">
        <ele>297</ele>
        <time>2016-05-20T14:41:21+02:00</time>
      </trkpt>
      <trkpt lat="43.82978" lon="1.9665">
        <ele>298</ele>
      </trkpt>
      <trkpt lat="43.82969" lon="1.96636">
        <ele>300</ele>
        <time>2016-05-20T14:42:43+02:00</time>
      </trkpt>
      <trkpt lat="43.82957" lon="1.96616">
        <ele>302</ele>
        <time>2016-05-20T14:43:06+02:00</time>
      </trkpt>
      <trkpt lat="43.8295" lon="1.96606">
        <ele>303</ele>
      </trkpt>
      <trkpt lat="43.82937" lon="1.96592">
        <ele>306</ele>
        <time>2016-05-20T14:43:28+02:00</time>
      </trkpt>
      <trkpt lat="43.82917" lon="1.96577">
        <ele>309</ele>
        <time>2016-05-20T14:43:50+02:00</time>
      </trkpt>
      <trkpt lat="43.82892" lon="1.96567">
        <ele>309</ele>
        <time>2016-05-20T14:44:12+02:00</time>
      </trkpt>
      <trkpt lat="43.82878" lon="1.96559">
        <ele>309</ele>
      </trkpt>
      <trkpt lat="43.82865" lon="1.96557">
        <ele>309</ele>
        <time>2016-05-20T14:44:39+02:00</time>
      </trkpt>
      <trkpt lat="43.82852" lon="1.96557">
        <ele>310</ele>
        <time>2016-05-20T14:45:00+02:00</time>
      </trkpt>
      <trkpt lat="43.82836" lon="1.96555">
        <ele>311</ele>
      </trkpt>
      <trkpt lat="43.82825" lon="1.96556">
        <ele>311</ele>
        <time>2016-05-20T14:45:21+02:00</time>
      </trkpt>
      <trkpt lat="43.82814" lon="1.96552">
        <ele>311</ele>
      </trkpt>
      <trkpt lat="43.82801" lon="1.9655">
        <ele>311</ele>
        <time>2016-05-20T14:45:39+02:00</time>
      </trkpt>
      <trkpt lat="43.82778" lon="1.96543">
        <ele>311</ele>
        <time>2016-05-20T14:46:00+02:00</time>
      </trkpt>
      <trkpt lat="43.82756" lon="1.96539">
        <ele>312</ele>
        <time>2016-05-20T14:46:23+02:00</time>
      </trkpt>
      <trkpt lat="43.82731" lon="1.96537">
        <ele>314</ele>
        <time>2016-05-20T14:49:31+02:00</time>
      </trkpt>
      <trkpt lat="43.82742" lon="1.96561">
        <ele>313</ele>
        <time>2016-05-20T15:11:25+02:00</time>
      </trkpt>
      <trkpt lat="43.82759" lon="1.96586">
        <ele>313</ele>
        <time>2016-05-20T15:11:58+02:00</time>
      </trkpt>
      <trkpt lat="43.82775" lon="1.96606">
        <ele>314</ele>
        <time>2016-05-20T15:12:27+02:00</time>
      </trkpt>
      <trkpt lat="43.82784" lon="1.96613">
        <ele>314</ele>
      </trkpt>
      <trkpt lat="43.82795" lon="1.9662">
        <ele>316</ele>
        <time>2016-05-20T15:12:55+02:00</time>
      </trkpt>
      <trkpt lat="43.82805" lon="1.96627">
        <ele>317</ele>
      </trkpt>
      <trkpt lat="43.82811" lon="1.96638">
        <ele>318</ele>
      </trkpt>
      <trkpt lat="43.82815" lon="1.96651">
        <ele>320</ele>
      </trkpt>
      <trkpt lat="43.82812" lon="1.96662">
        <ele>320</ele>
        <time>2016-05-20T15:13:31+02:00</time>
      </trkpt>
      <trkpt lat="43.82806" lon="1.9669">
        <ele>319</ele>
        <time>2016-05-20T15:13:55+02:00</time>
      </trkpt>
      <trkpt lat="43.82804" lon="1.96717">
        <ele>317</ele>
        <time>2016-05-20T15:14:19+02:00</time>
      </trkpt>
      <trkpt lat="43.82801" lon="1.96751">
        <ele>316</ele>
        <time>2016-05-20T15:14:45+02:00</time>
      </trkpt>
      <trkpt lat="43.82801" lon="1.96782">
        <ele>314</ele>
        <time>2016-05-20T15:15:07+02:00</time>
      </trkpt>
      <trkpt lat="43.82801" lon="1.968">
        <ele>313</ele>
      </trkpt>
      <trkpt lat="43.82808" lon="1.9682">
        <ele>312</ele>
        <time>2016-05-20T15:15:35+02:00</time>
      </trkpt>
      <trkpt lat="43.82817" lon="1.96843">
        <ele>312</ele>
        <time>2016-05-20T15:16:04+02:00</time>
      </trkpt>
      <trkpt lat="43.82825" lon="1.96862">
        <ele>311</ele>
      </trkpt>
      <trkpt lat="43.82833" lon="1.96877">
        <ele>311</ele>
        <time>2016-05-20T15:16:37+02:00</time>
      </trkpt>
      <trkpt lat="43.82845" lon="1.96899">
        <ele>307</ele>
        <time>2016-05-20T15:17:06+02:00</time>
      </trkpt>
      <trkpt lat="43.8286" lon="1.96921">
        <ele>304</ele>
        <time>2016-05-20T15:17:31+02:00</time>
      </trkpt>
      <trkpt lat="43.82868" lon="1.96927">
        <ele>302</ele>
      </trkpt>
      <trkpt lat="43.8287" lon="1.96941">
        <ele>300</ele>
      </trkpt>
      <trkpt lat="43.8287" lon="1.96953">
        <ele>299</ele>
        <time>2016-05-20T15:17:55+02:00</time>
      </trkpt>
      <trkpt lat="43.82872" lon="1.96981">
        <ele>295</ele>
        <time>2016-05-20T15:18:21+02:00</time>
      </trkpt>
      <trkpt lat="43.82867" lon="1.97004">
        <ele>294</ele>
        <time>2016-05-20T15:18:39+02:00</time>
      </trkpt>
      <trkpt lat="43.82861" lon="1.97036">
        <ele>291</ele>
        <time>2016-05-20T15:19:12+02:00</time>
      </trkpt>
      <trkpt lat="43.82856" lon="1.97053">
        <ele>289</ele>
      </trkpt>
      <trkpt lat="43.82849" lon="1.97074">
        <ele>287</ele>
        <time>2016-05-20T15:19:47+02:00</time>
      </trkpt>
      <trkpt lat="43.82842" lon="1.97093">
        <ele>286</ele>
        <time>2016-05-20T15:20:17+02:00</time>
      </trkpt>
      <trkpt lat="43.82836" lon="1.97107">
        <ele>285</ele>
      </trkpt>
      <trkpt lat="43.82829" lon="1.97122">
        <ele>284</ele>
        <time>2016-05-20T15:20:52+02:00</time>
      </trkpt>
      <trkpt lat="43.82821" lon="1.9714">
        <ele>282</ele>
      </trkpt>
      <trkpt lat="43.82816" lon="1.97154">
        <ele>281</ele>
        <time>2016-05-20T15:21:26+02:00</time>
      </trkpt>
      <trkpt lat="43.82812" lon="1.97168">
        <ele>280</ele>
      </trkpt>
      <trkpt lat="43.82808" lon="1.97177">
        <ele>279</ele>
      </trkpt>
      <trkpt lat="43.82814" lon="1.9718">
        <ele>279</ele>
        <time>2016-05-20T15:21:51+02:00</time>
      </trkpt>
      <trkpt lat="43.82817" lon="1.97197">
        <ele>279</ele>
        <time>2016-05-20T15:22:16+02:00</time>
      </trkpt>
      <trkpt lat="43.82819" lon="1.97215">
        <ele>278</ele>
      </trkpt>
      <trkpt lat="43.8282" lon="1.97229">
        <ele>277</ele>
      </trkpt>
      <trkpt lat="43.8282" lon="1.97234">
        <ele>277</ele>
      </trkpt>
      <trkpt lat="43.82811" lon="1.97244">
        <ele>276</ele>
        <time>2016-05-20T15:25:46+02:00</time>
      </trkpt>
      <trkpt lat="43.82801" lon="1.97253">
        <ele>275</ele>
      </trkpt>
      <trkpt lat="43.82792" lon="1.97261">
        <ele>275</ele>
        <time>2016-05-20T15:26:12+02:00</time>
      </trkpt>
      <trkpt lat="43.82782" lon="1.97268">
        <ele>275</ele>
      </trkpt>
      <trkpt lat="43.82777" lon="1.97273">
        <ele>276</ele>
      </trkpt>
      <trkpt lat="43.82775" lon="1.97282">
        <ele>276</ele>
        <time>2016-05-20T15:26:43+02:00</time>
      </trkpt>
      <trkpt lat="43.8277" lon="1.97291">
        <ele>277</ele>
      </trkpt>
      <trkpt lat="43.82766" lon="1.973">
        <ele>277</ele>
      </trkpt>
      <trkpt lat="43.8276" lon="1.97308">
        <ele>278</ele>
        <time>2016-05-20T15:27:08+02:00</time>
      </trkpt>
      <trkpt lat="43.82749" lon="1.97306">
        <ele>278</ele>
      </trkpt>
      <trkpt lat="43.82735" lon="1.9731">
        <ele>277</ele>
        <time>2016-05-20T15:27:32+02:00</time>
      </trkpt>
      <trkpt lat="43.82724" lon="1.97312">
        <ele>275</ele>
      </trkpt>
      <trkpt lat="43.82715" lon="1.9732">
        <ele>275</ele>
        <time>2016-05-20T15:27:55+02:00</time>
      </trkpt>
      <trkpt lat="43.82707" lon="1.97328">
        <ele>274</ele>
      </trkpt>
      <trkpt lat="43.82698" lon="1.9734">
        <ele>274</ele>
        <time>2016-05-20T15:28:16+02:00</time>
      </trkpt>
      <trkpt lat="43.82692" lon="1.9735">
        <ele>274</ele>
      </trkpt>
      <trkpt lat="43.82683" lon="1.97365">
        <ele>275</ele>
        <time>2016-05-20T15:28:41+02:00</time>
      </trkpt>
      <trkpt lat="43.82679" lon="1.97377">
        <ele>276</ele>
      </trkpt>
      <trkpt lat="43.82672" lon="1.97394">
        <ele>277</ele>
        <time>2016-05-20T15:29:05+02:00</time>
      </trkpt>
      <trkpt lat="43.82663" lon="1.97424">
        <ele>279</ele>
        <time>2016-05-20T15:29:33+02:00</time>
      </trkpt>
      <trkpt lat="43.82659" lon="1.97435">
        <ele>279</ele>
      </trkpt>
      <trkpt lat="43.82651" lon="1.97452">
        <ele>279</ele>
        <time>2016-05-20T15:30:00+02:00</time>
      </trkpt>
      <trkpt lat="43.82647" lon="1.97459">
        <ele>279</ele>
      </trkpt>
      <trkpt lat="43.82638" lon="1.97467">
        <ele>278</ele>
        <time>2016-05-20T15:30:16+02:00</time>
      </trkpt>
      <trkpt lat="43.82627" lon="1.97476">
        <ele>277</ele>
      </trkpt>
      <trkpt lat="43.82622" lon="1.97486">
        <ele>277</ele>
      </trkpt>
      <trkpt lat="43.82615" lon="1.97496">
        <ele>277</ele>
        <time>2016-05-20T15:30:30+02:00</time>
      </trkpt>
      <trkpt lat="43.82607" lon="1.97517">
        <ele>277</ele>
        <time>2016-05-20T15:30:50+02:00</time>
      </trkpt>
      <trkpt lat="43.82599" lon="1.9753">
        <ele>277</ele>
      </trkpt>
      <trkpt lat="43.82592" lon="1.97547">
        <ele>277</ele>
        <time>2016-05-20T15:31:26+02:00</time>
      </trkpt>
      <trkpt lat="43.82584" lon="1.97558">
        <ele>276</ele>
      </trkpt>
      <trkpt lat="43.82578" lon="1.97574">
        <ele>277</ele>
        <time>2016-05-20T15:31:40+02:00</time>
      </trkpt>
      <trkpt lat="43.82565" lon="1.97592">
        <ele>275</ele>
        <time>2016-05-20T15:32:08+02:00</time>
      </trkpt>
      <trkpt lat="43.82556" lon="1.9761">
        <ele>274</ele>
        <time>2016-05-20T15:32:19+02:00</time>
      </trkpt>
      <trkpt lat="43.82549" lon="1.97624">
        <ele>273</ele>
      </trkpt>
      <trkpt lat="43.82543" lon="1.97638">
        <ele>273</ele>
        <time>2016-05-20T15:33:11+02:00</time>
      </trkpt>
      <trkpt lat="43.82535" lon="1.97651">
        <ele>272</ele>
      </trkpt>
      <trkpt lat="43.82524" lon="1.97654">
        <ele>270</ele>
        <time>2016-05-20T15:33:39+02:00</time>
      </trkpt>
      <trkpt lat="43.82509" lon="1.97659">
        <ele>267</ele>
        <time>2016-05-20T15:34:08+02:00</time>
      </trkpt>
      <trkpt lat="43.82489" lon="1.97664">
        <ele>265</ele>
      </trkpt>
      <trkpt lat="43.82471" lon="1.97672">
        <ele>262</ele>
        <time>2016-05-20T15:34:28+02:00</time>
      </trkpt>
      <trkpt lat="43.82457" lon="1.97676">
        <ele>260</ele>
      </trkpt>
      <trkpt lat="43.82449" lon="1.9768">
        <ele>259</ele>
        <time>2016-05-20T15:34:49+02:00</time>
      </trkpt>
      <trkpt lat="43.82441" lon="1.97688">
        <ele>258</ele>
      </trkpt>
      <trkpt lat="43.82431" lon="1.97696">
        <ele>256</ele>
        <time>2016-05-20T15:35:07+02:00</time>
      </trkpt>
      <trkpt lat="43.82421" lon="1.97703">
        <ele>255</ele>
      </trkpt>
      <trkpt lat="43.82411" lon="1.97711">
        <ele>253</ele>
        <time>2016-05-20T15:35:26+02:00</time>
      </trkpt>
      <trkpt lat="43.82402" lon="1.97718">
        <ele>252</ele>
      </trkpt>
      <trkpt lat="43.82393" lon="1.97726">
        <ele>251</ele>
        <time>2016-05-20T15:35:47+02:00</time>
      </trkpt>
      <trkpt lat="43.82384" lon="1.97731">
        <ele>251</ele>
      </trkpt>
      <trkpt lat="43.82372" lon="1.97745">
        <ele>249</ele>
        <time>2016-05-20T15:36:10+02:00</time>
      </trkpt>
      <trkpt lat="43.82357" lon="1.97759">
        <ele>248</ele>
        <time>2016-05-20T15:36:29+02:00</time>
      </trkpt>
      <trkpt lat="43.82349" lon="1.97767">
        <ele>247</ele>
      </trkpt>
      <trkpt lat="43.82334" lon="1.97784">
        <ele>245</ele>
        <time>2016-05-20T15:36:49+02:00</time>
      </trkpt>
      <trkpt lat="43.82315" lon="1.97803">
        <ele>244</ele>
        <time>2016-05-20T15:37:09+02:00</time>
      </trkpt>
      <trkpt lat="43.82297" lon="1.97821">
        <ele>243</ele>
        <time>2016-05-20T15:37:29+02:00</time>
      </trkpt>
      <trkpt lat="43.82278" lon="1.97841">
        <ele>242</ele>
        <time>2016-05-20T15:37:48+02:00</time>
      </trkpt>
      <trkpt lat="43.8226" lon="1.9786">
        <ele>242</ele>
        <time>2016-05-20T15:38:08+02:00</time>
      </trkpt>
      <trkpt lat="43.82243" lon="1.97882">
        <ele>241</ele>
        <time>2016-05-20T15:38:28+02:00</time>
      </trkpt>
      <trkpt lat="43.82228" lon="1.97907">
        <ele>241</ele>
        <time>2016-05-20T15:38:47+02:00</time>
      </trkpt>
      <trkpt lat="43.82214" lon="1.97933">
        <ele>240</ele>
        <time>2016-05-20T15:39:07+02:00</time>
      </trkpt>
      <trkpt lat="43.822" lon="1.97958">
        <ele>240</ele>
        <time>2016-05-20T15:39:26+02:00</time>
      </trkpt>
      <trkpt lat="43.82185" lon="1.97983">
        <ele>239</ele>
        <time>2016-05-20T15:39:45+02:00</time>
      </trkpt>
      <trkpt lat="43.82177" lon="1.97995">
        <ele>239</ele>
      </trkpt>
      <trkpt lat="43.82169" lon="1.98009">
        <ele>240</ele>
        <time>2016-05-20T15:40:04+02:00</time>
      </trkpt>
      <trkpt lat="43.82156" lon="1.98031">
        <ele>242</ele>
        <time>2016-05-20T15:40:23+02:00</time>
      </trkpt>
      <trkpt lat="43.82141" lon="1.98055">
        <ele>243</ele>
        <time>2016-05-20T15:40:43+02:00</time>
      </trkpt>
      <trkpt lat="43.82126" lon="1.9808">
        <ele>244</ele>
        <time>2016-05-20T15:41:03+02:00</time>
      </trkpt>
      <trkpt lat="43.82112" lon="1.98104">
        <ele>245</ele>
        <time>2016-05-20T15:41:22+02:00</time>
      </trkpt>
      <trkpt lat="43.82097" lon="1.98128">
        <ele>245</ele>
        <time>2016-05-20T15:41:43+02:00</time>
      </trkpt>
      <trkpt lat="43.82082" lon="1.98153">
        <ele>245</ele>
        <time>2016-05-20T15:42:05+02:00</time>
      </trkpt>
      <trkpt lat="43.82068" lon="1.98178">
        <ele>246</ele>
        <time>2016-05-20T15:42:25+02:00</time>
      </trkpt>
      <trkpt lat="43.82055" lon="1.98205">
        <ele>247</ele>
        <time>2016-05-20T15:42:47+02:00</time>
      </trkpt>
      <trkpt lat="43.82041" lon="1.9823">
        <ele>247</ele>
        <time>2016-05-20T15:43:16+02:00</time>
      </trkpt>
      <trkpt lat="43.82034" lon="1.98241">
        <ele>247</ele>
      </trkpt>
      <trkpt lat="43.82032" lon="1.98252">
        <ele>247</ele>
      </trkpt>
      <trkpt lat="43.82031" lon="1.98261">
        <ele>246</ele>
      </trkpt>
      <trkpt lat="43.82038" lon="1.98273">
        <ele>245</ele>
        <time>2016-05-20T15:49:36+02:00</time>
      </trkpt>
      <trkpt lat="43.82047" lon="1.98293">
        <ele>244</ele>
        <time>2016-05-20T15:49:56+02:00</time>
      </trkpt>
      <trkpt lat="43.82054" lon="1.98323">
        <ele>243</ele>
        <time>2016-05-20T15:50:20+02:00</time>
      </trkpt>
      <trkpt lat="43.82056" lon="1.98358">
        <ele>243</ele>
        <time>2016-05-20T15:50:43+02:00</time>
      </trkpt>
      <trkpt lat="43.82067" lon="1.98384">
        <ele>244</ele>
        <time>2016-05-20T15:51:04+02:00</time>
      </trkpt>
      <trkpt lat="43.82078" lon="1.98408">
        <ele>245</ele>
        <time>2016-05-20T15:51:29+02:00</time>
      </trkpt>
      <trkpt lat="43.8209" lon="1.98436">
        <ele>244</ele>
        <time>2016-05-20T15:51:56+02:00</time>
      </trkpt>
      <trkpt lat="43.82102" lon="1.98464">
        <ele>241</ele>
        <time>2016-05-20T15:52:19+02:00</time>
      </trkpt>
      <trkpt lat="43.82107" lon="1.98481">
        <ele>240</ele>
      </trkpt>
      <trkpt lat="43.82113" lon="1.98493">
        <ele>239</ele>
        <time>2016-05-20T15:52:37+02:00</time>
      </trkpt>
      <trkpt lat="43.82123" lon="1.98502">
        <ele>238</ele>
      </trkpt>
      <trkpt lat="43.82136" lon="1.98502">
        <ele>239</ele>
        <time>2016-05-20T15:52:56+02:00</time>
      </trkpt>
      <trkpt lat="43.82149" lon="1.985">
        <ele>240</ele>
      </trkpt>
      <trkpt lat="43.82161" lon="1.98498">
        <ele>241</ele>
        <time>2016-05-20T15:53:18+02:00</time>
      </trkpt>
      <trkpt lat="43.82173" lon="1.98498">
        <ele>241</ele>
      </trkpt>
      <trkpt lat="43.82185" lon="1.98502">
        <ele>240</ele>
        <time>2016-05-20T15:53:40+02:00</time>
      </trkpt>
      <trkpt lat="43.82195" lon="1.98505">
        <ele>240</ele>
      </trkpt>
      <trkpt lat="43.82207" lon="1.98514">
        <ele>238</ele>
        <time>2016-05-20T15:54:00+02:00</time>
      </trkpt>
      <trkpt lat="43.82217" lon="1.9852">
        <ele>238</ele>
      </trkpt>
      <trkpt lat="43.8223" lon="1.98529">
        <ele>237</ele>
        <time>2016-05-20T15:54:19+02:00</time>
      </trkpt>
      <trkpt lat="43.8224" lon="1.98537">
        <ele>237</ele>
      </trkpt>
      <trkpt lat="43.82249" lon="1.98549">
        <ele>237</ele>
        <time>2016-05-20T15:54:38+02:00</time>
      </trkpt>
      <trkpt lat="43.82258" lon="1.98563">
        <ele>237</ele>
        <time>2016-05-20T15:55:00+02:00</time>
      </trkpt>
      <trkpt lat="43.82272" lon="1.98573">
        <ele>239</ele>
      </trkpt>
      <trkpt lat="43.82284" lon="1.98586">
        <ele>240</ele>
        <time>2016-05-20T15:55:20+02:00</time>
      </trkpt>
      <trkpt lat="43.82303" lon="1.98604">
        <ele>241</ele>
        <time>2016-05-20T15:55:41+02:00</time>
      </trkpt>
      <trkpt lat="43.82312" lon="1.98614">
        <ele>242</ele>
      </trkpt>
      <trkpt lat="43.82323" lon="1.98625">
        <ele>242</ele>
        <time>2016-05-20T15:56:04+02:00</time>
      </trkpt>
      <trkpt lat="43.82331" lon="1.98632">
        <ele>243</ele>
      </trkpt>
      <trkpt lat="43.82343" lon="1.98636">
        <ele>242</ele>
        <time>2016-05-20T15:56:26+02:00</time>
      </trkpt>
      <trkpt lat="43.82352" lon="1.98629">
        <ele>243</ele>
      </trkpt>
      <trkpt lat="43.82362" lon="1.98614">
        <ele>243</ele>
        <time>2016-05-20T15:56:45+02:00</time>
      </trkpt>
      <trkpt lat="43.82377" lon="1.98589">
        <ele>245</ele>
        <time>2016-05-20T15:57:05+02:00</time>
      </trkpt>
      <trkpt lat="43.82392" lon="1.98564">
        <ele>247</ele>
        <time>2016-05-20T15:57:25+02:00</time>
      </trkpt>
      <trkpt lat="43.824" lon="1.98551">
        <ele>248</ele>
      </trkpt>
      <trkpt lat="43.8241" lon="1.98539">
        <ele>249</ele>
        <time>2016-05-20T15:57:49+02:00</time>
      </trkpt>
      <trkpt lat="43.82419" lon="1.98533">
        <ele>250</ele>
      </trkpt>
      <trkpt lat="43.82432" lon="1.98534">
        <ele>250</ele>
        <time>2016-05-20T15:58:12+02:00</time>
      </trkpt>
      <trkpt lat="43.82455" lon="1.98542">
        <ele>249</ele>
        <time>2016-05-20T15:58:37+02:00</time>
      </trkpt>
      <trkpt lat="43.82476" lon="1.98549">
        <ele>248</ele>
        <time>2016-05-20T15:58:58+02:00</time>
      </trkpt>
      <trkpt lat="43.82499" lon="1.98556">
        <ele>248</ele>
        <time>2016-05-20T15:59:20+02:00</time>
      </trkpt>
      <trkpt lat="43.8251" lon="1.98562">
        <ele>248</ele>
      </trkpt>
      <trkpt lat="43.82519" lon="1.98572">
        <ele>249</ele>
        <time>2016-05-20T15:59:43+02:00</time>
      </trkpt>
      <trkpt lat="43.82532" lon="1.98597">
        <ele>250</ele>
        <time>2016-05-20T16:00:08+02:00</time>
      </trkpt>
      <trkpt lat="43.82546" lon="1.98623">
        <ele>251</ele>
        <time>2016-05-20T16:00:35+02:00</time>
      </trkpt>
      <trkpt lat="43.82558" lon="1.98649">
        <ele>252</ele>
        <time>2016-05-20T16:01:02+02:00</time>
      </trkpt>
      <trkpt lat="43.82572" lon="1.98672">
        <ele>253</ele>
        <time>2016-05-20T16:01:24+02:00</time>
      </trkpt>
      <trkpt lat="43.82586" lon="1.98697">
        <ele>254</ele>
        <time>2016-05-20T16:01:46+02:00</time>
      </trkpt>
      <trkpt lat="43.82594" lon="1.98706">
        <ele>256</ele>
      </trkpt>
      <trkpt lat="43.82606" lon="1.98715">
        <ele>258</ele>
        <time>2016-05-20T16:02:08+02:00</time>
      </trkpt>
      <trkpt lat="43.82627" lon="1.98731">
        <ele>261</ele>
        <time>2016-05-20T16:02:37+02:00</time>
      </trkpt>
      <trkpt lat="43.82639" lon="1.98742">
        <ele>262</ele>
      </trkpt>
      <trkpt lat="43.82648" lon="1.98752">
        <ele>263</ele>
        <time>2016-05-20T16:03:04+02:00</time>
      </trkpt>
      <trkpt lat="43.82658" lon="1.9876">
        <ele>264</ele>
      </trkpt>
      <trkpt lat="43.8267" lon="1.98754">
        <ele>266</ele>
        <time>2016-05-20T16:03:32+02:00</time>
      </trkpt>
      <trkpt lat="43.82679" lon="1.98748">
        <ele>268</ele>
      </trkpt>
      <trkpt lat="43.82689" lon="1.98731">
        <ele>271</ele>
        <time>2016-05-20T16:04:00+02:00</time>
      </trkpt>
      <trkpt lat="43.82695" lon="1.98717">
        <ele>273</ele>
      </trkpt>
      <trkpt lat="43.82701" lon="1.98703">
        <ele>275</ele>
        <time>2016-05-20T16:04:29+02:00</time>
      </trkpt>
      <trkpt lat="43.8271" lon="1.98679">
        <ele>278</ele>
        <time>2016-05-20T16:05:04+02:00</time>
      </trkpt>
      <trkpt lat="43.82714" lon="1.98662">
        <ele>280</ele>
      </trkpt>
      <trkpt lat="43.82722" lon="1.98642">
        <ele>282</ele>
        <time>2016-05-20T16:05:42+02:00</time>
      </trkpt>
      <trkpt lat="43.8273" lon="1.98618">
        <ele>285</ele>
        <time>2016-05-20T16:06:09+02:00</time>
      </trkpt>
      <trkpt lat="43.82741" lon="1.98594">
        <ele>287</ele>
        <time>2016-05-20T16:06:45+02:00</time>
      </trkpt>
      <trkpt lat="43.82751" lon="1.98568">
        <ele>289</ele>
        <time>2016-05-20T16:07:12+02:00</time>
      </trkpt>
      <trkpt lat="43.82758" lon="1.9855">
        <ele>287</ele>
      </trkpt>
      <trkpt lat="43.82766" lon="1.98533">
        <ele>285</ele>
        <time>2016-05-20T16:07:37+02:00</time>
      </trkpt>
      <trkpt lat="43.82761" lon="1.9852">
        <ele>286</ele>
        <time>2016-05-20T16:07:59+02:00</time>
      </trkpt>
      <trkpt lat="43.82761" lon="1.98499">
        <ele>285</ele>
      </trkpt>
      <trkpt lat="43.82762" lon="1.98477">
        <ele>285</ele>
        <time>2016-05-20T16:08:18+02:00</time>
      </trkpt>
      <trkpt lat="43.82764" lon="1.98446">
        <ele>284</ele>
        <time>2016-05-20T16:08:35+02:00</time>
      </trkpt>
      <trkpt lat="43.82767" lon="1.98414">
        <ele>283</ele>
        <time>2016-05-20T16:08:54+02:00</time>
      </trkpt>
      <trkpt lat="43.82771" lon="1.98384">
        <ele>283</ele>
        <time>2016-05-20T16:09:12+02:00</time>
      </trkpt>
      <trkpt lat="43.82776" lon="1.98351">
        <ele>283</ele>
        <time>2016-05-20T16:09:37+02:00</time>
      </trkpt>
      <trkpt lat="43.82781" lon="1.98321">
        <ele>283</ele>
        <time>2016-05-20T16:09:56+02:00</time>
      </trkpt>
      <trkpt lat="43.82784" lon="1.9829">
        <ele>283</ele>
        <time>2016-05-20T16:10:16+02:00</time>
      </trkpt>
      <trkpt lat="43.82793" lon="1.98261">
        <ele>284</ele>
        <time>2016-05-20T16:10:41+02:00</time>
      </trkpt>
      <trkpt lat="43.82807" lon="1.98235">
        <ele>287</ele>
        <time>2016-05-20T16:11:05+02:00</time>
      </trkpt>
      <trkpt lat="43.82813" lon="1.98223">
        <ele>288</ele>
      </trkpt>
      <trkpt lat="43.8282" lon="1.98208">
        <ele>289</ele>
        <time>2016-05-20T16:12:29+02:00</time>
      </trkpt>
      <trkpt lat="43.82826" lon="1.98182">
        <ele>291</ele>
        <time>2016-05-20T16:14:20+02:00</time>
      </trkpt>
      <trkpt lat="43.82836" lon="1.98154">
        <ele>293</ele>
        <time>2016-05-20T16:14:55+02:00</time>
      </trkpt>
      <trkpt lat="43.82842" lon="1.98121">
        <ele>294</ele>
        <time>2016-05-20T16:15:19+02:00</time>
      </trkpt>
      <trkpt lat="43.82849" lon="1.98088">
        <ele>296</ele>
        <time>2016-05-20T16:15:49+02:00</time>
      </trkpt>
      <trkpt lat="43.82854" lon="1.98064">
        <ele>298</ele>
        <time>2016-05-20T16:16:09+02:00</time>
      </trkpt>
      <trkpt lat="43.82856" lon="1.98046">
        <ele>299</ele>
      </trkpt>
      <trkpt lat="43.82858" lon="1.98026">
        <ele>300</ele>
        <time>2016-05-20T16:16:31+02:00</time>
      </trkpt>
      <trkpt lat="43.82859" lon="1.98006">
        <ele>302</ele>
        <time>2016-05-20T16:16:59+02:00</time>
      </trkpt>
      <trkpt lat="43.82857" lon="1.97978">
        <ele>302</ele>
      </trkpt>
      <trkpt lat="43.82854" lon="1.97961">
        <ele>303</ele>
      </trkpt>
      <trkpt lat="43.82848" lon="1.97933">
        <ele>303</ele>
      </trkpt>
      <trkpt lat="43.82838" lon="1.97903">
        <ele>303</ele>
        <time>2016-05-20T16:17:17+02:00</time>
      </trkpt>
      <trkpt lat="43.82849" lon="1.97903">
        <ele>303</ele>
      </trkpt>
      <trkpt lat="43.82854" lon="1.97902">
        <ele>303</ele>
      </trkpt>
      <trkpt lat="43.82862" lon="1.97909">
        <ele>303</ele>
      </trkpt>
      <trkpt lat="43.82869" lon="1.97908">
        <ele>303</ele>
      </trkpt>
      <trkpt lat="43.82882" lon="1.97922">
        <ele>304</ele>
      </trkpt>
      <trkpt lat="43.8289" lon="1.97931">
        <ele>304</ele>
        <time>2016-05-20T16:18:12+02:00</time>
      </trkpt>
      <trkpt lat="43.82901" lon="1.97935">
        <ele>304</ele>
      </trkpt>
      <trkpt lat="43.8291" lon="1.97932">
        <ele>304</ele>
        <time>2016-05-20T16:18:32+02:00</time>
      </trkpt>
      <trkpt lat="43.82923" lon="1.9792">
        <ele>304</ele>
        <time>2016-05-20T16:18:47+02:00</time>
      </trkpt>
      <trkpt lat="43.82938" lon="1.97903">
        <ele>302</ele>
        <time>2016-05-20T16:19:07+02:00</time>
      </trkpt>
      <trkpt lat="43.82947" lon="1.97891">
        <ele>301</ele>
        <time>2016-05-20T16:19:32+02:00</time>
      </trkpt>
      <trkpt lat="43.82956" lon="1.97875">
        <ele>301</ele>
      </trkpt>
      <trkpt lat="43.82965" lon="1.97864">
        <ele>301</ele>
      </trkpt>
      <trkpt lat="43.82976" lon="1.97852">
        <ele>301</ele>
        <time>2016-05-20T16:19:55+02:00</time>
      </trkpt>
      <trkpt lat="43.82992" lon="1.97841">
        <ele>302</ele>
        <time>2016-05-20T16:20:14+02:00</time>
      </trkpt>
      <trkpt lat="43.83007" lon="1.97825">
        <ele>301</ele>
        <time>2016-05-20T16:20:34+02:00</time>
      </trkpt>
      <trkpt lat="43.83014" lon="1.97819">
        <ele>300</ele>
        <time>2016-05-20T16:21:02+02:00</time>
      </trkpt>
      <trkpt lat="43.83024" lon="1.97803">
        <ele>299</ele>
      </trkpt>
      <trkpt lat="43.83034" lon="1.97788">
        <ele>299</ele>
      </trkpt>
      <trkpt lat="43.83043" lon="1.97775">
        <ele>298</ele>
        <time>2016-05-20T16:21:34+02:00</time>
      </trkpt>
      <trkpt lat="43.83055" lon="1.97764">
        <ele>298</ele>
      </trkpt>
      <trkpt lat="43.83063" lon="1.97753">
        <ele>298</ele>
        <time>2016-05-20T16:21:50+02:00</time>
      </trkpt>
      <trkpt lat="43.83074" lon="1.9774">
        <ele>297</ele>
      </trkpt>
      <trkpt lat="43.83084" lon="1.97726">
        <ele>297</ele>
      </trkpt>
      <trkpt lat="43.83094" lon="1.97711">
        <ele>296</ele>
        <time>2016-05-20T16:22:36+02:00</time>
      </trkpt>
      <trkpt lat="43.83103" lon="1.97698">
        <ele>295</ele>
      </trkpt>
      <trkpt lat="43.8311" lon="1.97687">
        <ele>295</ele>
        <time>2016-05-20T16:22:48+02:00</time>
      </trkpt>
      <trkpt lat="43.83122" lon="1.97677">
        <ele>295</ele>
      </trkpt>
      <trkpt lat="43.83137" lon="1.97668">
        <ele>296</ele>
        <time>2016-05-20T16:23:02+02:00</time>
      </trkpt>
      <trkpt lat="43.83148" lon="1.97658">
        <ele>296</ele>
        <time>2016-05-20T16:23:17+02:00</time>
      </trkpt>
      <trkpt lat="43.83164" lon="1.97644">
        <ele>296</ele>
        <time>2016-05-20T16:23:42+02:00</time>
      </trkpt>
      <trkpt lat="43.83179" lon="1.97634">
        <ele>294</ele>
      </trkpt>
      <trkpt lat="43.83194" lon="1.97624">
        <ele>292</ele>
        <time>2016-05-20T16:24:00+02:00</time>
      </trkpt>
      <trkpt lat="43.83199" lon="1.97617">
        <ele>291</ele>
        <time>2016-05-20T16:24:13+02:00</time>
      </trkpt>
      <trkpt lat="43.83207" lon="1.97603">
        <ele>291</ele>
      </trkpt>
      <trkpt lat="43.83214" lon="1.97592">
        <ele>291</ele>
      </trkpt>
      <trkpt lat="43.83225" lon="1.97579">
        <ele>291</ele>
        <time>2016-05-20T16:24:27+02:00</time>
      </trkpt>
      <trkpt lat="43.83237" lon="1.97565">
        <ele>290</ele>
        <time>2016-05-20T16:24:43+02:00</time>
      </trkpt>
      <trkpt lat="43.83251" lon="1.97552">
        <ele>290</ele>
      </trkpt>
      <trkpt lat="43.83262" lon="1.97538">
        <ele>288</ele>
        <time>2016-05-20T16:24:58+02:00</time>
      </trkpt>
      <trkpt lat="43.83274" lon="1.97525">
        <ele>287</ele>
        <time>2016-05-20T16:25:15+02:00</time>
      </trkpt>
      <trkpt lat="43.83289" lon="1.97507">
        <ele>287</ele>
        <time>2016-05-20T16:25:41+02:00</time>
      </trkpt>
      <trkpt lat="43.83307" lon="1.97492">
        <ele>287</ele>
        <time>2016-05-20T16:26:02+02:00</time>
      </trkpt>
      <trkpt lat="43.83322" lon="1.97481">
        <ele>286</ele>
      </trkpt>
      <trkpt lat="43.83336" lon="1.97475">
        <ele>286</ele>
        <time>2016-05-20T16:26:20+02:00</time>
      </trkpt>
      <trkpt lat="43.83353" lon="1.97468">
        <ele>285</ele>
      </trkpt>
      <trkpt lat="43.83371" lon="1.97462">
        <ele>284</ele>
        <time>2016-05-20T16:26:50+02:00</time>
      </trkpt>
      <trkpt lat="43.83379" lon="1.97455">
        <ele>284</ele>
        <time>2016-05-20T16:27:12+02:00</time>
      </trkpt>
      <trkpt lat="43.83387" lon="1.97446">
        <ele>284</ele>
      </trkpt>
      <trkpt lat="43.83401" lon="1.97441">
        <ele>284</ele>
      </trkpt>
      <trkpt lat="43.83413" lon="1.97437">
        <ele>284</ele>
      </trkpt>
      <trkpt lat="43.83426" lon="1.97435">
        <ele>283</ele>
        <time>2016-05-20T16:27:38+02:00</time>
      </trkpt>
      <trkpt lat="43.8344" lon="1.9744">
        <ele>282</ele>
      </trkpt>
      <trkpt lat="43.83452" lon="1.97446">
        <ele>281</ele>
      </trkpt>
      <trkpt lat="43.83466" lon="1.97455">
        <ele>280</ele>
        <time>2016-05-20T16:27:52+02:00</time>
      </trkpt>
      <trkpt lat="43.83482" lon="1.97466">
        <ele>279</ele>
        <time>2016-05-20T16:28:12+02:00</time>
      </trkpt>
      <trkpt lat="43.83493" lon="1.97474">
        <ele>278</ele>
        <time>2016-05-20T16:28:30+02:00</time>
      </trkpt>
      <trkpt lat="43.83509" lon="1.97473">
        <ele>277</ele>
        <time>2016-05-20T16:28:50+02:00</time>
      </trkpt>
      <trkpt lat="43.83523" lon="1.9747">
        <ele>274</ele>
        <time>2016-05-20T16:29:08+02:00</time>
      </trkpt>
      <trkpt lat="43.83537" lon="1.97467">
        <ele>272</ele>
        <time>2016-05-20T16:29:29+02:00</time>
      </trkpt>
      <trkpt lat="43.83551" lon="1.97462">
        <ele>269</ele>
      </trkpt>
      <trkpt lat="43.83568" lon="1.97461">
        <ele>267</ele>
        <time>2016-05-20T16:29:58+02:00</time>
      </trkpt>
      <trkpt lat="43.83584" lon="1.97465">
        <ele>264</ele>
      </trkpt>
      <trkpt lat="43.83595" lon="1.97466">
        <ele>263</ele>
        <time>2016-05-20T16:30:26+02:00</time>
      </trkpt>
      <trkpt lat="43.83604" lon="1.97465">
        <ele>261</ele>
      </trkpt>
      <trkpt lat="43.83611" lon="1.9746">
        <ele>261</ele>
        <time>2016-05-20T16:30:46+02:00</time>
      </trkpt>
      <trkpt lat="43.8362" lon="1.97453">
        <ele>260</ele>
      </trkpt>
      <trkpt lat="43.83627" lon="1.97444">
        <ele>259</ele>
        <time>2016-05-20T16:31:08+02:00</time>
      </trkpt>
      <trkpt lat="43.83632" lon="1.97439">
        <ele>258</ele>
      </trkpt>
      <trkpt lat="43.83642" lon="1.97445">
        <ele>257</ele>
      </trkpt>
      <trkpt lat="43.83646" lon="1.97448">
        <ele>257</ele>
      </trkpt>
      <trkpt lat="43.83658" lon="1.97443">
        <ele>255</ele>
        <time>2016-05-20T16:31:45+02:00</time>
      </trkpt>
      <trkpt lat="43.8367" lon="1.97442">
        <ele>254</ele>
      </trkpt>
      <trkpt lat="43.83682" lon="1.97442">
        <ele>253</ele>
        <time>2016-05-20T16:32:03+02:00</time>
      </trkpt>
      <trkpt lat="43.83697" lon="1.97442">
        <ele>252</ele>
      </trkpt>
      <trkpt lat="43.83709" lon="1.97445">
        <ele>252</ele>
        <time>2016-05-20T16:32:21+02:00</time>
      </trkpt>
      <trkpt lat="43.83719" lon="1.97453">
        <ele>251</ele>
      </trkpt>
      <trkpt lat="43.83726" lon="1.9746">
        <ele>250</ele>
        <time>2016-05-20T16:32:45+02:00</time>
      </trkpt>
      <trkpt lat="43.83742" lon="1.97478">
        <ele>249</ele>
        <time>2016-05-20T16:33:07+02:00</time>
      </trkpt>
      <trkpt lat="43.83751" lon="1.9749">
        <ele>247</ele>
      </trkpt>
      <trkpt lat="43.83762" lon="1.97501">
        <ele>246</ele>
        <time>2016-05-20T16:33:27+02:00</time>
      </trkpt>
      <trkpt lat="43.83776" lon="1.97518">
        <ele>244</ele>
        <time>2016-05-20T16:33:50+02:00</time>
      </trkpt>
      <trkpt lat="43.83795" lon="1.97539">
        <ele>242</ele>
        <time>2016-05-20T16:34:12+02:00</time>
      </trkpt>
      <trkpt lat="43.83812" lon="1.97559">
        <ele>241</ele>
        <time>2016-05-20T16:34:32+02:00</time>
      </trkpt>
      <trkpt lat="43.83825" lon="1.97576">
        <ele>240</ele>
        <time>2016-05-20T16:34:51+02:00</time>
      </trkpt>
      <trkpt lat="43.83842" lon="1.97593">
        <ele>238</ele>
        <time>2016-05-20T16:35:11+02:00</time>
      </trkpt>
      <trkpt lat="43.83854" lon="1.97602">
        <ele>237</ele>
      </trkpt>
      <trkpt lat="43.83863" lon="1.97606">
        <ele>237</ele>
      </trkpt>
      <trkpt lat="43.83872" lon="1.97604">
        <ele>236</ele>
        <time>2016-05-20T16:35:33+02:00</time>
      </trkpt>
      <trkpt lat="43.83882" lon="1.976">
        <ele>236</ele>
      </trkpt>
      <trkpt lat="43.83892" lon="1.9759">
        <ele>236</ele>
        <time>2016-05-20T16:35:56+02:00</time>
      </trkpt>
      <trkpt lat="43.8391" lon="1.97569">
        <ele>236</ele>
        <time>2016-05-20T16:36:18+02:00</time>
      </trkpt>
      <trkpt lat="43.83929" lon="1.97549">
        <ele>236</ele>
        <time>2016-05-20T16:36:40+02:00</time>
      </trkpt>
      <trkpt lat="43.83948" lon="1.97531">
        <ele>236</ele>
        <time>2016-05-20T16:37:02+02:00</time>
      </trkpt>
      <trkpt lat="43.83967" lon="1.97514">
        <ele>235</ele>
        <time>2016-05-20T16:37:24+02:00</time>
      </trkpt>
      <trkpt lat="43.83986" lon="1.97496">
        <ele>235</ele>
        <time>2016-05-20T16:37:47+02:00</time>
      </trkpt>
      <trkpt lat="43.84006" lon="1.97479">
        <ele>235</ele>
        <time>2016-05-20T16:38:10+02:00</time>
      </trkpt>
      <trkpt lat="43.84018" lon="1.97468">
        <ele>235</ele>
      </trkpt>
      <trkpt lat="43.8402" lon="1.97455">
        <ele>235</ele>
        <time>2016-05-20T16:39:33+02:00</time>
      </trkpt>
      <trkpt lat="43.84028" lon="1.97438">
        <ele>236</ele>
      </trkpt>
      <trkpt lat="43.84037" lon="1.97432">
        <ele>236</ele>
        <time>2016-05-20T16:40:00+02:00</time>
      </trkpt>
      <trkpt lat="43.84057" lon="1.97419">
        <ele>237</ele>
        <time>2016-05-20T16:40:24+02:00</time>
      </trkpt>
      <trkpt lat="43.84079" lon="1.97407">
        <ele>238</ele>
        <time>2016-05-20T16:40:48+02:00</time>
      </trkpt>
      <trkpt lat="43.84089" lon="1.97399">
        <ele>238</ele>
      </trkpt>
      <trkpt lat="43.841" lon="1.97394">
        <ele>239</ele>
        <time>2016-05-20T16:41:11+02:00</time>
      </trkpt>
      <trkpt lat="43.84111" lon="1.97387">
        <ele>239</ele>
      </trkpt>
      <trkpt lat="43.8412" lon="1.97374">
        <ele>240</ele>
        <time>2016-05-20T16:41:35+02:00</time>
      </trkpt>
      <trkpt lat="43.8413" lon="1.97349">
        <ele>241</ele>
        <time>2016-05-20T16:41:56+02:00</time>
      </trkpt>
      <trkpt lat="43.8414" lon="1.9732">
        <ele>241</ele>
        <time>2016-05-20T16:43:04+02:00</time>
      </trkpt>
      <trkpt lat="43.84149" lon="1.97291">
        <ele>241</ele>
        <time>2016-05-20T16:43:24+02:00</time>
      </trkpt>
      <trkpt lat="43.84158" lon="1.97265">
        <ele>241</ele>
        <time>2016-05-20T16:43:45+02:00</time>
      </trkpt>
      <trkpt lat="43.84164" lon="1.97233">
        <ele>241</ele>
        <time>2016-05-20T16:44:05+02:00</time>
      </trkpt>
      <trkpt lat="43.84166" lon="1.97201">
        <ele>241</ele>
        <time>2016-05-20T16:44:25+02:00</time>
      </trkpt>
      <trkpt lat="43.84169" lon="1.97168">
        <ele>240</ele>
        <time>2016-05-20T16:44:45+02:00</time>
      </trkpt>
      <trkpt lat="43.84173" lon="1.97137">
        <ele>239</ele>
        <time>2016-05-20T16:45:06+02:00</time>
      </trkpt>
      <trkpt lat="43.84179" lon="1.97107">
        <ele>238</ele>
        <time>2016-05-20T16:45:27+02:00</time>
      </trkpt>
      <trkpt lat="43.84187" lon="1.97078">
        <ele>236</ele>
        <time>2016-05-20T16:45:47+02:00</time>
      </trkpt>
      <trkpt lat="43.84192" lon="1.97064">
        <ele>235</ele>
      </trkpt>
      <trkpt lat="43.84199" lon="1.97049">
        <ele>233</ele>
        <time>2016-05-20T16:46:07+02:00</time>
      </trkpt>
      <trkpt lat="43.84214" lon="1.97026">
        <ele>231</ele>
        <time>2016-05-20T16:46:28+02:00</time>
      </trkpt>
      <trkpt lat="43.8423" lon="1.97004">
        <ele>229</ele>
        <time>2016-05-20T16:46:50+02:00</time>
      </trkpt>
      <trkpt lat="43.84248" lon="1.96983">
        <ele>227</ele>
        <time>2016-05-20T16:47:12+02:00</time>
      </trkpt>
      <trkpt lat="43.84263" lon="1.9696">
        <ele>225</ele>
        <time>2016-05-20T16:47:34+02:00</time>
      </trkpt>
      <trkpt lat="43.84276" lon="1.96933">
        <ele>223</ele>
        <time>2016-05-20T16:47:55+02:00</time>
      </trkpt>
      <trkpt lat="43.84287" lon="1.96906">
        <ele>221</ele>
        <time>2016-05-20T16:48:15+02:00</time>
      </trkpt>
      <trkpt lat="43.84298" lon="1.96878">
        <ele>218</ele>
        <time>2016-05-20T16:48:36+02:00</time>
      </trkpt>
      <trkpt lat="43.84306" lon="1.96848">
        <ele>216</ele>
        <time>2016-05-20T16:48:58+02:00</time>
      </trkpt>
      <trkpt lat="43.84311" lon="1.96817">
        <ele>215</ele>
        <time>2016-05-20T16:49:21+02:00</time>
      </trkpt>
      <trkpt lat="43.84314" lon="1.96803">
        <ele>214</ele>
      </trkpt>
      <trkpt lat="43.84314" lon="1.96795">
        <ele>214</ele>
      </trkpt>
      <trkpt lat="43.84307" lon="1.96788">
        <ele>214</ele>
        <time>2016-05-20T16:49:52+02:00</time>
      </trkpt>
      <trkpt lat="43.84286" lon="1.96777">
        <ele>214</ele>
        <time>2016-05-20T16:50:17+02:00</time>
      </trkpt>
      <trkpt lat="43.84275" lon="1.9677">
        <ele>214</ele>
      </trkpt>
      <trkpt lat="43.84267" lon="1.96767">
        <ele>214</ele>
        <time>2016-05-20T16:50:43+02:00</time>
      </trkpt>
      <trkpt lat="43.84259" lon="1.96752">
        <ele>214</ele>
      </trkpt>
      <trkpt lat="43.84247" lon="1.9674">
        <ele>214</ele>
        <time>2016-05-20T16:51:04+02:00</time>
      </trkpt>
      <trkpt lat="43.84229" lon="1.9672">
        <ele>215</ele>
        <time>2016-05-20T16:51:25+02:00</time>
      </trkpt>
      <trkpt lat="43.84214" lon="1.96697">
        <ele>216</ele>
        <time>2016-05-20T16:51:47+02:00</time>
      </trkpt>
      <trkpt lat="43.84206" lon="1.96692">
        <ele>216</ele>
      </trkpt>
      <trkpt lat="43.84211" lon="1.96674">
        <ele>216</ele>
      </trkpt>
      <trkpt lat="43.8422" lon="1.96661">
        <ele>216</ele>
        <time>2016-05-20T16:52:12+02:00</time>
      </trkpt>
      <trkpt lat="43.84227" lon="1.96648">
        <ele>216</ele>
      </trkpt>
      <trkpt lat="43.84234" lon="1.96641">
        <ele>216</ele>
        <time>2016-05-20T16:52:33+02:00</time>
      </trkpt>
      <trkpt lat="43.8424" lon="1.9662">
        <ele>216</ele>
      </trkpt>
      <trkpt lat="43.84238" lon="1.96609">
        <ele>216</ele>
        <time>2016-05-20T16:52:57+02:00</time>
      </trkpt>
      <trkpt lat="43.84234" lon="1.9658">
        <ele>217</ele>
        <time>2016-05-20T16:53:20+02:00</time>
      </trkpt>
      <trkpt lat="43.84228" lon="1.96554">
        <ele>218</ele>
        <time>2016-05-20T16:53:43+02:00</time>
      </trkpt>
      <trkpt lat="43.84222" lon="1.96532">
        <ele>218</ele>
      </trkpt>
      <trkpt lat="43.84214" lon="1.96522">
        <ele>219</ele>
        <time>2016-05-20T16:54:06+02:00</time>
      </trkpt>
      <trkpt lat="43.84199" lon="1.96502">
        <ele>220</ele>
        <time>2016-05-20T16:54:29+02:00</time>
      </trkpt>
      <trkpt lat="43.84182" lon="1.96482">
        <ele>221</ele>
        <time>2016-05-20T16:54:51+02:00</time>
      </trkpt>
      <trkpt lat="43.84164" lon="1.96461">
        <ele>223</ele>
        <time>2016-05-20T16:55:13+02:00</time>
      </trkpt>
      <trkpt lat="43.84145" lon="1.9644">
        <ele>225</ele>
        <time>2016-05-20T16:55:35+02:00</time>
      </trkpt>
      <trkpt lat="43.84129" lon="1.96421">
        <ele>226</ele>
        <time>2016-05-20T16:55:58+02:00</time>
      </trkpt>
      <trkpt lat="43.84113" lon="1.96403">
        <ele>227</ele>
      </trkpt>
      <trkpt lat="43.84128" lon="1.96388">
        <ele>226</ele>
        <time>2016-05-20T16:56:34+02:00</time>
      </trkpt>
      <trkpt lat="43.84146" lon="1.9637">
        <ele>226</ele>
        <time>2016-05-20T16:56:55+02:00</time>
      </trkpt>
      <trkpt lat="43.84166" lon="1.96353">
        <ele>225</ele>
        <time>2016-05-20T16:57:17+02:00</time>
      </trkpt>
      <trkpt lat="43.84185" lon="1.96336">
        <ele>224</ele>
        <time>2016-05-20T16:57:39+02:00</time>
      </trkpt>
      <trkpt lat="43.84194" lon="1.96325">
        <ele>223</ele>
      </trkpt>
      <trkpt lat="43.84204" lon="1.96316">
        <ele>223</ele>
        <time>2016-05-20T16:58:01+02:00</time>
      </trkpt>
      <trkpt lat="43.84222" lon="1.963">
        <ele>222</ele>
        <time>2016-05-20T16:58:23+02:00</time>
      </trkpt>
      <trkpt lat="43.8423" lon="1.96291">
        <ele>221</ele>
      </trkpt>
      <trkpt lat="43.84244" lon="1.96281">
        <ele>221</ele>
        <time>2016-05-20T16:58:45+02:00</time>
      </trkpt>
      <trkpt lat="43.84261" lon="1.96267">
        <ele>220</ele>
        <time>2016-05-20T16:59:22+02:00</time>
      </trkpt>
      <trkpt lat="43.84278" lon="1.96252">
        <ele>220</ele>
        <time>2016-05-20T17:00:23+02:00</time>
      </trkpt>
      <trkpt lat="43.84292" lon="1.96243">
        <ele>220</ele>
      </trkpt>
      <trkpt lat="43.84302" lon="1.96233">
        <ele>220</ele>
        <time>2016-05-20T17:00:46+02:00</time>
      </trkpt>
      <trkpt lat="43.84322" lon="1.96217">
        <ele>219</ele>
        <time>2016-05-20T17:01:08+02:00</time>
      </trkpt>
      <trkpt lat="43.84333" lon="1.96204">
        <ele>219</ele>
      </trkpt>
      <trkpt lat="43.84339" lon="1.96197">
        <ele>219</ele>
        <time>2016-05-20T17:01:29+02:00</time>
      </trkpt>
      <trkpt lat="43.84355" lon="1.96173">
        <ele>219</ele>
        <time>2016-05-20T17:02:07+02:00</time>
      </trkpt>
      <trkpt lat="43.84371" lon="1.9615">
        <ele>219</ele>
        <time>2016-05-20T17:02:29+02:00</time>
      </trkpt>
      <trkpt lat="43.84388" lon="1.96127">
        <ele>219</ele>
        <time>2016-05-20T17:02:51+02:00</time>
      </trkpt>
      <trkpt lat="43.84407" lon="1.96103">
        <ele>219</ele>
        <time>2016-05-20T17:03:13+02:00</time>
      </trkpt>
      <trkpt lat="43.84417" lon="1.96083">
        <ele>219</ele>
        <time>2016-05-20T17:03:35+02:00</time>
      </trkpt>
      <trkpt lat="43.84433" lon="1.96057">
        <ele>218</ele>
        <time>2016-05-20T17:03:55+02:00</time>
      </trkpt>
      <trkpt lat="43.84449" lon="1.96033">
        <ele>217</ele>
        <time>2016-05-20T17:04:16+02:00</time>
      </trkpt>
      <trkpt lat="43.84464" lon="1.96008">
        <ele>216</ele>
        <time>2016-05-20T17:04:37+02:00</time>
      </trkpt>
      <trkpt lat="43.84474" lon="1.95979">
        <ele>215</ele>
        <time>2016-05-20T17:04:58+02:00</time>
      </trkpt>
      <trkpt lat="43.84486" lon="1.95952">
        <ele>215</ele>
        <time>2016-05-20T17:05:18+02:00</time>
      </trkpt>
      <trkpt lat="43.84497" lon="1.95925">
        <ele>215</ele>
        <time>2016-05-20T17:05:38+02:00</time>
      </trkpt>
      <trkpt lat="43.84508" lon="1.95898">
        <ele>215</ele>
        <time>2016-05-20T17:05:58+02:00</time>
      </trkpt>
      <trkpt lat="43.84513" lon="1.95883">
        <ele>215</ele>
      </trkpt>
      <trkpt lat="43.84521" lon="1.95868">
        <ele>214</ele>
        <time>2016-05-20T17:06:19+02:00</time>
      </trkpt>
      <trkpt lat="43.84535" lon="1.95845">
        <ele>213</ele>
        <time>2016-05-20T17:06:39+02:00</time>
      </trkpt>
      <trkpt lat="43.8455" lon="1.9582">
        <ele>213</ele>
        <time>2016-05-20T17:07:00+02:00</time>
      </trkpt>
      <trkpt lat="43.84564" lon="1.95795">
        <ele>212</ele>
        <time>2016-05-20T17:07:21+02:00</time>
      </trkpt>
      <trkpt lat="43.84577" lon="1.95767">
        <ele>212</ele>
        <time>2016-05-20T17:07:42+02:00</time>
      </trkpt>
      <trkpt lat="43.84588" lon="1.95737">
        <ele>211</ele>
        <time>2016-05-20T17:08:05+02:00</time>
      </trkpt>
      <trkpt lat="43.84598" lon="1.95709">
        <ele>210</ele>
        <time>2016-05-20T17:08:30+02:00</time>
      </trkpt>
      <trkpt lat="43.84605" lon="1.95679">
        <ele>209</ele>
        <time>2016-05-20T17:08:51+02:00</time>
      </trkpt>
      <trkpt lat="43.84609" lon="1.95663">
        <ele>209</ele>
      </trkpt>
      <trkpt lat="43.84614" lon="1.95648">
        <ele>209</ele>
        <time>2016-05-20T17:09:13+02:00</time>
      </trkpt>
      <trkpt lat="43.84626" lon="1.95622">
        <ele>209</ele>
        <time>2016-05-20T17:09:34+02:00</time>
      </trkpt>
      <trkpt lat="43.8464" lon="1.95596">
        <ele>209</ele>
        <time>2016-05-20T17:10:31+02:00</time>
      </trkpt>
      <trkpt lat="43.84654" lon="1.95572">
        <ele>209</ele>
        <time>2016-05-20T17:10:52+02:00</time>
      </trkpt>
      <trkpt lat="43.8467" lon="1.9555">
        <ele>208</ele>
        <time>2016-05-20T17:11:13+02:00</time>
      </trkpt>
      <trkpt lat="43.84687" lon="1.95528">
        <ele>208</ele>
        <time>2016-05-20T17:11:52+02:00</time>
      </trkpt>
      <trkpt lat="43.84695" lon="1.95515">
        <ele>208</ele>
      </trkpt>
      <trkpt lat="43.84683" lon="1.95499">
        <ele>209</ele>
        <time>2016-05-20T17:13:01+02:00</time>
      </trkpt>
      <trkpt lat="43.84669" lon="1.95473">
        <ele>209</ele>
        <time>2016-05-20T17:13:25+02:00</time>
      </trkpt>
      <trkpt lat="43.84661" lon="1.95462">
        <ele>210</ele>
      </trkpt>
      <trkpt lat="43.84656" lon="1.95447">
        <ele>210</ele>
        <time>2016-05-20T17:13:48+02:00</time>
      </trkpt>
      <trkpt lat="43.84645" lon="1.9542">
        <ele>211</ele>
        <time>2016-05-20T17:14:11+02:00</time>
      </trkpt>
      <trkpt lat="43.84633" lon="1.95393">
        <ele>214</ele>
        <time>2016-05-20T17:14:36+02:00</time>
      </trkpt>
      <trkpt lat="43.84622" lon="1.95365">
        <ele>217</ele>
        <time>2016-05-20T17:15:01+02:00</time>
      </trkpt>
      <trkpt lat="43.84613" lon="1.95337">
        <ele>220</ele>
        <time>2016-05-20T17:15:26+02:00</time>
      </trkpt>
      <trkpt lat="43.84599" lon="1.95308">
        <ele>222</ele>
        <time>2016-05-20T17:15:51+02:00</time>
      </trkpt>
      <trkpt lat="43.84595" lon="1.95294">
        <ele>223</ele>
      </trkpt>
      <trkpt lat="43.8459" lon="1.95285">
        <ele>223</ele>
        <time>2016-05-20T17:17:16+02:00</time>
      </trkpt>
      <trkpt lat="43.84566" lon="1.95267">
        <ele>226</ele>
        <time>2016-05-20T17:17:41+02:00</time>
      </trkpt>
      <trkpt lat="43.84547" lon="1.95248">
        <ele>228</ele>
        <time>2016-05-20T17:18:09+02:00</time>
      </trkpt>
      <trkpt lat="43.84528" lon="1.95236">
        <ele>230</ele>
        <time>2016-05-20T17:18:36+02:00</time>
      </trkpt>
      <trkpt lat="43.84511" lon="1.95222">
        <ele>232</ele>
        <time>2016-05-20T17:18:58+02:00</time>
      </trkpt>
      <trkpt lat="43.84499" lon="1.95206">
        <ele>234</ele>
        <time>2016-05-20T17:19:24+02:00</time>
      </trkpt>
      <trkpt lat="43.84488" lon="1.95191">
        <ele>235</ele>
      </trkpt>
      <trkpt lat="43.84475" lon="1.95178">
        <ele>236</ele>
        <time>2016-05-20T17:19:51+02:00</time>
      </trkpt>
      <trkpt lat="43.84461" lon="1.9515">
        <ele>238</ele>
        <time>2016-05-20T17:20:21+02:00</time>
      </trkpt>
      <trkpt lat="43.84448" lon="1.95121">
        <ele>241</ele>
        <time>2016-05-20T17:23:27+02:00</time>
      </trkpt>
      <trkpt lat="43.84439" lon="1.95104">
        <ele>242</ele>
      </trkpt>
      <trkpt lat="43.84429" lon="1.95085">
        <ele>244</ele>
        <time>2016-05-20T17:23:53+02:00</time>
      </trkpt>
      <trkpt lat="43.84418" lon="1.9509">
        <ele>244</ele>
        <time>2016-05-20T17:24:21+02:00</time>
      </trkpt>
      <trkpt lat="43.84407" lon="1.9509">
        <ele>244</ele>
      </trkpt>
      <trkpt lat="43.84388" lon="1.95094">
        <ele>244</ele>
        <time>2016-05-20T17:24:45+02:00</time>
      </trkpt>
      <trkpt lat="43.84365" lon="1.95089">
        <ele>244</ele>
        <time>2016-05-20T17:25:10+02:00</time>
      </trkpt>
      <trkpt lat="43.84344" lon="1.95076">
        <ele>245</ele>
        <time>2016-05-20T17:25:33+02:00</time>
      </trkpt>
      <trkpt lat="43.84323" lon="1.95062">
        <ele>246</ele>
        <time>2016-05-20T17:26:26+02:00</time>
      </trkpt>
      <trkpt lat="43.84302" lon="1.95049">
        <ele>246</ele>
        <time>2016-05-20T17:26:49+02:00</time>
      </trkpt>
      <trkpt lat="43.84283" lon="1.95034">
        <ele>246</ele>
        <time>2016-05-20T17:27:29+02:00</time>
      </trkpt>
      <trkpt lat="43.84273" lon="1.95025">
        <ele>246</ele>
      </trkpt>
      <trkpt lat="43.84274" lon="1.95005">
        <ele>247</ele>
        <time>2016-05-20T17:27:55+02:00</time>
      </trkpt>
    </trkseg>
  </trk>
</gpx>